sensor_id;sensor_type;location;lat;lon;timestamp;temperature;humidity
13982;DHT22;7065;50.880;5.502;2023-05-10T00:00:08;12.80;99.90
13982;DHT22;7065;50.880;5.502;2023-05-10T00:02:35;12.80;99.90
13982;DHT22;7065;50.880;5.502;2023-05-10T00:05:01;12.80;99.90
13982;DHT22;7065;50.880;5.502;2023-05-10T00:07:27;12.70;99.90
13982;DHT22;7065;50.880;5.502;2023-05-10T00:09:52;12.70;99.90
13982;DHT22;7065;50.880;5.502;2023-05-10T00:12:18;12.70;99.90
13982;DHT22;7065;50.880;5.502;2023-05-10T00:14:44;12.70;99.90
13982;DHT22;7065;50.880;5.502;2023-05-10T00:17:10;12.70;99.90
13982;DHT22;7065;50.880;5.502;2023-05-10T00:19:36;12.70;99.90
13982;DHT22;7065;50.880;5.502;2023-05-10T00:22:01;12.70;99.90
13982;DHT22;7065;50.880;5.502;2023-05-10T00:24:27;12.70;99.90
13982;DHT22;7065;50.880;5.502;2023-05-10T00:26:53;12.70;99.90
13982;DHT22;7065;50.880;5.502;2023-05-10T00:29:18;12.70;99.90
13982;DHT22;7065;50.880;5.502;2023-05-10T00:31:45;12.70;99.90
13982;DHT22;7065;50.880;5.502;2023-05-10T00:34:10;12.70;99.90
13982;DHT22;7065;50.880;5.502;2023-05-10T00:36:37;12.70;99.90
13982;DHT22;7065;50.880;5.502;2023-05-10T00:39:03;12.70;99.90
13982;DHT22;7065;50.880;5.502;2023-05-10T00:41:29;12.70;99.90
13982;DHT22;7065;50.880;5.502;2023-05-10T00:43:58;12.70;99.90
13982;DHT22;7065;50.880;5.502;2023-05-10T00:46:23;12.70;99.90
13982;DHT22;7065;50.880;5.502;2023-05-10T00:48:49;12.70;99.90
13982;DHT22;7065;50.880;5.502;2023-05-10T00:51:15;12.70;99.90
13982;DHT22;7065;50.880;5.502;2023-05-10T00:53:41;12.70;99.90
13982;DHT22;7065;50.880;5.502;2023-05-10T00:56:08;12.70;99.90
13982;DHT22;7065;50.880;5.502;2023-05-10T00:58:33;12.70;99.90
13982;DHT22;7065;50.880;5.502;2023-05-10T01:01:00;12.70;99.90
13982;DHT22;7065;50.880;5.502;2023-05-10T01:03:27;12.70;99.90
13982;DHT22;7065;50.880;5.502;2023-05-10T01:05:53;12.70;99.90
13982;DHT22;7065;50.880;5.502;2023-05-10T01:08:19;12.70;99.90
13982;DHT22;7065;50.880;5.502;2023-05-10T01:10:45;12.60;99.90
13982;DHT22;7065;50.880;5.502;2023-05-10T01:13:12;12.70;99.90
13982;DHT22;7065;50.880;5.502;2023-05-10T01:15:39;12.70;99.90
13982;DHT22;7065;50.880;5.502;2023-05-10T01:18:05;12.70;99.90
13982;DHT22;7065;50.880;5.502;2023-05-10T01:20:38;12.60;99.90
13982;DHT22;7065;50.880;5.502;2023-05-10T01:34:34;12.60;99.90
13982;DHT22;7065;50.880;5.502;2023-05-10T01:37:25;12.50;99.90
13982;DHT22;7065;50.880;5.502;2023-05-10T01:39:55;12.60;99.90
13982;DHT22;7065;50.880;5.502;2023-05-10T01:42:26;12.50;99.90
13982;DHT22;7065;50.880;5.502;2023-05-10T01:45:02;12.60;99.90
13982;DHT22;7065;50.880;5.502;2023-05-10T01:47:40;12.60;99.90
13982;DHT22;7065;50.880;5.502;2023-05-10T01:50:10;12.50;99.90
13982;DHT22;7065;50.880;5.502;2023-05-10T01:52:46;12.50;99.90
13982;DHT22;7065;50.880;5.502;2023-05-10T01:55:15;12.60;99.90
13982;DHT22;7065;50.880;5.502;2023-05-10T01:57:43;12.50;99.90
13982;DHT22;7065;50.880;5.502;2023-05-10T02:00:10;12.60;99.90
13982;DHT22;7065;50.880;5.502;2023-05-10T02:02:39;12.60;99.90
13982;DHT22;7065;50.880;5.502;2023-05-10T02:05:08;12.50;99.90
13982;DHT22;7065;50.880;5.502;2023-05-10T02:07:36;12.50;99.90
13982;DHT22;7065;50.880;5.502;2023-05-10T02:10:06;12.50;99.90
13982;DHT22;7065;50.880;5.502;2023-05-10T02:12:37;12.50;99.90
13982;DHT22;7065;50.880;5.502;2023-05-10T02:15:07;12.50;99.90
13982;DHT22;7065;50.880;5.502;2023-05-10T02:17:35;12.50;99.90
13982;DHT22;7065;50.880;5.502;2023-05-10T02:20:03;12.60;99.90
13982;DHT22;7065;50.880;5.502;2023-05-10T02:22:30;12.50;99.90
13982;DHT22;7065;50.880;5.502;2023-05-10T02:24:58;12.50;99.90
13982;DHT22;7065;50.880;5.502;2023-05-10T02:27:25;12.50;99.90
13982;DHT22;7065;50.880;5.502;2023-05-10T02:29:53;12.50;99.90
13982;DHT22;7065;50.880;5.502;2023-05-10T02:32:21;12.50;99.90
13982;DHT22;7065;50.880;5.502;2023-05-10T02:34:48;12.50;99.90
13982;DHT22;7065;50.880;5.502;2023-05-10T02:37:19;12.50;99.90
13982;DHT22;7065;50.880;5.502;2023-05-10T02:39:50;12.50;99.90
13982;DHT22;7065;50.880;5.502;2023-05-10T02:42:18;12.40;99.90
13982;DHT22;7065;50.880;5.502;2023-05-10T02:44:48;12.50;99.90
13982;DHT22;7065;50.880;5.502;2023-05-10T02:47:14;12.40;99.90
13982;DHT22;7065;50.880;5.502;2023-05-10T02:49:40;12.40;99.90
13982;DHT22;7065;50.880;5.502;2023-05-10T02:52:06;12.50;99.90
13982;DHT22;7065;50.880;5.502;2023-05-10T02:54:41;12.40;99.90
13982;DHT22;7065;50.880;5.502;2023-05-10T02:57:15;12.40;99.90
13982;DHT22;7065;50.880;5.502;2023-05-10T02:59:43;12.40;99.90
13982;DHT22;7065;50.880;5.502;2023-05-10T03:02:12;12.40;99.90
13982;DHT22;7065;50.880;5.502;2023-05-10T03:04:37;12.40;99.90
13982;DHT22;7065;50.880;5.502;2023-05-10T03:07:03;12.40;99.90
13982;DHT22;7065;50.880;5.502;2023-05-10T03:09:30;12.40;99.90
13982;DHT22;7065;50.880;5.502;2023-05-10T03:18:05;12.40;99.90
13982;DHT22;7065;50.880;5.502;2023-05-10T03:20:38;12.40;99.90
13982;DHT22;7065;50.880;5.502;2023-05-10T03:24:04;12.40;99.90
13982;DHT22;7065;50.880;5.502;2023-05-10T03:26:07;12.40;99.90
13982;DHT22;7065;50.880;5.502;2023-05-10T03:28:34;12.40;99.90
13982;DHT22;7065;50.880;5.502;2023-05-10T03:31:02;12.40;99.90
13982;DHT22;7065;50.880;5.502;2023-05-10T03:33:29;12.40;99.90
13982;DHT22;7065;50.880;5.502;2023-05-10T03:35:56;12.40;99.90
13982;DHT22;7065;50.880;5.502;2023-05-10T03:38:21;12.40;99.90
13982;DHT22;7065;50.880;5.502;2023-05-10T03:40:47;12.40;99.90
13982;DHT22;7065;50.880;5.502;2023-05-10T03:43:13;12.50;99.90
13982;DHT22;7065;50.880;5.502;2023-05-10T03:45:38;12.40;99.90
13982;DHT22;7065;50.880;5.502;2023-05-10T03:48:04;12.40;99.90
13982;DHT22;7065;50.880;5.502;2023-05-10T03:50:30;12.40;99.90
13982;DHT22;7065;50.880;5.502;2023-05-10T03:52:56;12.40;99.90
13982;DHT22;7065;50.880;5.502;2023-05-10T03:55:22;12.40;99.90
13982;DHT22;7065;50.880;5.502;2023-05-10T03:57:48;12.50;99.90
13982;DHT22;7065;50.880;5.502;2023-05-10T04:00:15;12.50;99.90
13982;DHT22;7065;50.880;5.502;2023-05-10T04:02:41;12.50;99.90
13982;DHT22;7065;50.880;5.502;2023-05-10T04:05:07;12.40;99.90
13982;DHT22;7065;50.880;5.502;2023-05-10T04:07:33;12.50;99.90
13982;DHT22;7065;50.880;5.502;2023-05-10T04:09:59;12.50;99.90
13982;DHT22;7065;50.880;5.502;2023-05-10T04:12:25;12.40;99.90
13982;DHT22;7065;50.880;5.502;2023-05-10T04:14:51;12.40;99.90
13982;DHT22;7065;50.880;5.502;2023-05-10T04:17:17;12.50;99.90
13982;DHT22;7065;50.880;5.502;2023-05-10T04:19:42;12.50;99.90
13982;DHT22;7065;50.880;5.502;2023-05-10T04:22:08;12.50;99.90
13982;DHT22;7065;50.880;5.502;2023-05-10T04:24:34;12.50;99.90
13982;DHT22;7065;50.880;5.502;2023-05-10T04:26:59;12.50;99.90
13982;DHT22;7065;50.880;5.502;2023-05-10T04:29:25;12.50;99.90
13982;DHT22;7065;50.880;5.502;2023-05-10T04:31:52;12.50;99.90
13982;DHT22;7065;50.880;5.502;2023-05-10T04:34:17;12.50;99.90
13982;DHT22;7065;50.880;5.502;2023-05-10T04:36:43;12.50;99.90
13982;DHT22;7065;50.880;5.502;2023-05-10T04:39:09;12.50;99.90
13982;DHT22;7065;50.880;5.502;2023-05-10T04:41:38;12.50;99.90
13982;DHT22;7065;50.880;5.502;2023-05-10T04:44:04;12.50;99.90
13982;DHT22;7065;50.880;5.502;2023-05-10T04:46:29;12.50;99.90
13982;DHT22;7065;50.880;5.502;2023-05-10T04:48:55;12.50;99.90
13982;DHT22;7065;50.880;5.502;2023-05-10T04:51:21;12.50;99.90
13982;DHT22;7065;50.880;5.502;2023-05-10T04:53:47;12.50;99.90
13982;DHT22;7065;50.880;5.502;2023-05-10T04:56:13;12.50;99.90
13982;DHT22;7065;50.880;5.502;2023-05-10T04:58:38;12.50;99.90
13982;DHT22;7065;50.880;5.502;2023-05-10T05:01:08;12.40;99.90
13982;DHT22;7065;50.880;5.502;2023-05-10T05:03:35;12.40;99.90
13982;DHT22;7065;50.880;5.502;2023-05-10T05:06:00;12.40;99.90
13982;DHT22;7065;50.880;5.502;2023-05-10T05:08:26;12.40;99.90
13982;DHT22;7065;50.880;5.502;2023-05-10T05:10:52;12.40;99.90
13982;DHT22;7065;50.880;5.502;2023-05-10T05:13:18;12.30;99.90
13982;DHT22;7065;50.880;5.502;2023-05-10T05:15:44;12.40;99.90
13982;DHT22;7065;50.880;5.502;2023-05-10T05:18:09;12.30;99.90
13982;DHT22;7065;50.880;5.502;2023-05-10T05:20:35;12.40;99.90
13982;DHT22;7065;50.880;5.502;2023-05-10T05:23:01;12.40;99.90
13982;DHT22;7065;50.880;5.502;2023-05-10T05:25:27;12.40;99.90
13982;DHT22;7065;50.880;5.502;2023-05-10T05:27:53;12.30;99.90
13982;DHT22;7065;50.880;5.502;2023-05-10T05:30:19;12.30;99.90
13982;DHT22;7065;50.880;5.502;2023-05-10T05:32:44;12.30;99.90
13982;DHT22;7065;50.880;5.502;2023-05-10T05:35:12;12.40;99.90
13982;DHT22;7065;50.880;5.502;2023-05-10T05:37:38;12.40;99.90
13982;DHT22;7065;50.880;5.502;2023-05-10T05:40:04;12.40;99.90
13982;DHT22;7065;50.880;5.502;2023-05-10T05:42:31;12.40;99.90
13982;DHT22;7065;50.880;5.502;2023-05-10T05:44:57;12.40;99.90
13982;DHT22;7065;50.880;5.502;2023-05-10T05:47:22;12.50;99.90
13982;DHT22;7065;50.880;5.502;2023-05-10T05:49:48;12.50;99.90
13982;DHT22;7065;50.880;5.502;2023-05-10T05:52:14;12.50;99.90
13982;DHT22;7065;50.880;5.502;2023-05-10T05:54:39;12.50;99.90
13982;DHT22;7065;50.880;5.502;2023-05-10T05:57:05;12.50;99.90
13982;DHT22;7065;50.880;5.502;2023-05-10T05:59:31;12.50;99.90
13982;DHT22;7065;50.880;5.502;2023-05-10T06:01:57;12.50;99.90
13982;DHT22;7065;50.880;5.502;2023-05-10T06:04:23;12.60;99.90
13982;DHT22;7065;50.880;5.502;2023-05-10T06:06:48;12.60;99.90
13982;DHT22;7065;50.880;5.502;2023-05-10T06:09:14;12.60;99.90
13982;DHT22;7065;50.880;5.502;2023-05-10T06:11:41;12.60;99.90
13982;DHT22;7065;50.880;5.502;2023-05-10T06:14:08;12.70;99.90
13982;DHT22;7065;50.880;5.502;2023-05-10T06:16:34;12.70;99.90
13982;DHT22;7065;50.880;5.502;2023-05-10T06:19:00;12.70;99.90
13982;DHT22;7065;50.880;5.502;2023-05-10T06:21:25;12.70;99.90
13982;DHT22;7065;50.880;5.502;2023-05-10T06:23:51;12.80;99.90
13982;DHT22;7065;50.880;5.502;2023-05-10T06:26:17;12.70;99.90
13982;DHT22;7065;50.880;5.502;2023-05-10T06:28:42;12.70;99.90
13982;DHT22;7065;50.880;5.502;2023-05-10T06:31:08;12.70;99.90
13982;DHT22;7065;50.880;5.502;2023-05-10T06:33:34;12.70;99.90
13982;DHT22;7065;50.880;5.502;2023-05-10T06:36:00;12.70;99.90
13982;DHT22;7065;50.880;5.502;2023-05-10T06:38:26;12.70;99.90
13982;DHT22;7065;50.880;5.502;2023-05-10T06:40:52;12.70;99.90
13982;DHT22;7065;50.880;5.502;2023-05-10T06:43:18;12.70;99.90
13982;DHT22;7065;50.880;5.502;2023-05-10T06:45:44;12.70;99.90
13982;DHT22;7065;50.880;5.502;2023-05-10T06:48:09;12.80;99.90
13982;DHT22;7065;50.880;5.502;2023-05-10T06:50:35;12.70;99.90
13982;DHT22;7065;50.880;5.502;2023-05-10T06:53:01;12.70;99.90
13982;DHT22;7065;50.880;5.502;2023-05-10T06:55:28;12.70;99.90
13982;DHT22;7065;50.880;5.502;2023-05-10T06:57:54;12.80;99.90
13982;DHT22;7065;50.880;5.502;2023-05-10T07:00:20;12.80;99.90
13982;DHT22;7065;50.880;5.502;2023-05-10T07:02:46;12.80;99.90
13982;DHT22;7065;50.880;5.502;2023-05-10T07:05:12;12.70;99.90
13982;DHT22;7065;50.880;5.502;2023-05-10T07:07:39;12.70;99.90
13982;DHT22;7065;50.880;5.502;2023-05-10T07:10:05;12.70;99.90
13982;DHT22;7065;50.880;5.502;2023-05-10T07:12:31;12.70;99.90
13982;DHT22;7065;50.880;5.502;2023-05-10T07:14:57;12.70;99.90
13982;DHT22;7065;50.880;5.502;2023-05-10T07:17:24;12.70;99.90
13982;DHT22;7065;50.880;5.502;2023-05-10T07:19:50;12.70;99.90
13982;DHT22;7065;50.880;5.502;2023-05-10T07:22:16;12.70;99.90
13982;DHT22;7065;50.880;5.502;2023-05-10T07:24:42;12.70;99.90
13982;DHT22;7065;50.880;5.502;2023-05-10T07:27:08;12.80;99.90
13982;DHT22;7065;50.880;5.502;2023-05-10T07:29:34;12.80;99.90
13982;DHT22;7065;50.880;5.502;2023-05-10T07:32:00;12.70;99.90
13982;DHT22;7065;50.880;5.502;2023-05-10T07:34:27;12.70;99.90
13982;DHT22;7065;50.880;5.502;2023-05-10T07:36:53;12.80;99.90
13982;DHT22;7065;50.880;5.502;2023-05-10T07:39:19;12.80;99.90
13982;DHT22;7065;50.880;5.502;2023-05-10T07:41:46;12.80;99.90
13982;DHT22;7065;50.880;5.502;2023-05-10T07:44:11;12.80;99.90
13982;DHT22;7065;50.880;5.502;2023-05-10T07:46:37;12.80;99.90
13982;DHT22;7065;50.880;5.502;2023-05-10T07:49:03;12.60;99.90
13982;DHT22;7065;50.880;5.502;2023-05-10T07:51:29;12.60;99.90
13982;DHT22;7065;50.880;5.502;2023-05-10T07:53:54;12.50;99.90
13982;DHT22;7065;50.880;5.502;2023-05-10T07:56:27;12.40;99.90
13982;DHT22;7065;50.880;5.502;2023-05-10T07:58:58;12.40;99.90
13982;DHT22;7065;50.880;5.502;2023-05-10T08:01:25;12.40;99.90
13982;DHT22;7065;50.880;5.502;2023-05-10T08:03:51;12.30;99.90
13982;DHT22;7065;50.880;5.502;2023-05-10T08:06:18;12.40;99.90
13982;DHT22;7065;50.880;5.502;2023-05-10T08:08:45;12.30;99.90
13982;DHT22;7065;50.880;5.502;2023-05-10T08:11:17;12.20;99.90
13982;DHT22;7065;50.880;5.502;2023-05-10T08:13:47;12.30;99.90
13982;DHT22;7065;50.880;5.502;2023-05-10T08:16:14;12.30;99.90
13982;DHT22;7065;50.880;5.502;2023-05-10T08:18:40;12.30;99.90
13982;DHT22;7065;50.880;5.502;2023-05-10T08:21:06;12.20;99.90
13982;DHT22;7065;50.880;5.502;2023-05-10T08:23:32;12.30;99.90
13982;DHT22;7065;50.880;5.502;2023-05-10T08:25:58;12.30;99.90
13982;DHT22;7065;50.880;5.502;2023-05-10T08:28:24;12.40;99.90
13982;DHT22;7065;50.880;5.502;2023-05-10T08:30:50;12.30;99.90
13982;DHT22;7065;50.880;5.502;2023-05-10T08:33:17;12.30;99.90
13982;DHT22;7065;50.880;5.502;2023-05-10T08:35:43;12.30;99.90
13982;DHT22;7065;50.880;5.502;2023-05-10T08:38:09;12.30;99.90
13982;DHT22;7065;50.880;5.502;2023-05-10T08:40:36;12.40;99.90
13982;DHT22;7065;50.880;5.502;2023-05-10T08:43:07;12.40;99.90
13982;DHT22;7065;50.880;5.502;2023-05-10T08:45:37;12.40;99.90
13982;DHT22;7065;50.880;5.502;2023-05-10T08:48:05;12.40;99.90
13982;DHT22;7065;50.880;5.502;2023-05-10T08:50:32;12.40;99.90
13982;DHT22;7065;50.880;5.502;2023-05-10T08:53:00;12.30;99.90
13982;DHT22;7065;50.880;5.502;2023-05-10T08:55:29;12.40;99.90
13982;DHT22;7065;50.880;5.502;2023-05-10T08:57:55;12.30;99.90
13982;DHT22;7065;50.880;5.502;2023-05-10T09:00:22;12.30;99.90
13982;DHT22;7065;50.880;5.502;2023-05-10T09:02:49;12.40;99.90
13982;DHT22;7065;50.880;5.502;2023-05-10T09:05:15;12.40;99.90
13982;DHT22;7065;50.880;5.502;2023-05-10T09:07:43;12.40;99.90
13982;DHT22;7065;50.880;5.502;2023-05-10T09:10:09;12.50;99.90
13982;DHT22;7065;50.880;5.502;2023-05-10T09:12:36;12.60;99.90
13982;DHT22;7065;50.880;5.502;2023-05-10T09:15:03;12.70;99.90
13982;DHT22;7065;50.880;5.502;2023-05-10T09:17:29;12.80;99.90
13982;DHT22;7065;50.880;5.502;2023-05-10T09:20:02;12.80;99.90
13982;DHT22;7065;50.880;5.502;2023-05-10T09:22:30;12.90;99.90
13982;DHT22;7065;50.880;5.502;2023-05-10T09:25:09;12.90;99.90
13982;DHT22;7065;50.880;5.502;2023-05-10T09:27:38;13.00;99.90
13982;DHT22;7065;50.880;5.502;2023-05-10T09:30:04;13.10;99.90
13982;DHT22;7065;50.880;5.502;2023-05-10T09:32:41;13.10;99.90
13982;DHT22;7065;50.880;5.502;2023-05-10T09:35:12;13.10;99.90
13982;DHT22;7065;50.880;5.502;2023-05-10T09:37:46;13.10;99.90
13982;DHT22;7065;50.880;5.502;2023-05-10T09:40:17;13.20;99.90
13982;DHT22;7065;50.880;5.502;2023-05-10T09:42:58;13.20;99.90
13982;DHT22;7065;50.880;5.502;2023-05-10T09:45:29;13.30;99.90
13982;DHT22;7065;50.880;5.502;2023-05-10T09:47:56;13.30;99.90
13982;DHT22;7065;50.880;5.502;2023-05-10T09:50:23;13.30;99.90
13982;DHT22;7065;50.880;5.502;2023-05-10T09:53:00;13.30;99.90
13982;DHT22;7065;50.880;5.502;2023-05-10T09:55:43;13.30;99.90
13982;DHT22;7065;50.880;5.502;2023-05-10T09:58:14;13.20;99.90
13982;DHT22;7065;50.880;5.502;2023-05-10T10:00:44;13.30;99.90
13982;DHT22;7065;50.880;5.502;2023-05-10T10:03:16;13.30;99.90
13982;DHT22;7065;50.880;5.502;2023-05-10T10:05:43;13.40;99.90
13982;DHT22;7065;50.880;5.502;2023-05-10T10:08:09;13.60;99.90
13982;DHT22;7065;50.880;5.502;2023-05-10T10:10:35;13.60;99.90
13982;DHT22;7065;50.880;5.502;2023-05-10T10:13:02;13.70;99.90
13982;DHT22;7065;50.880;5.502;2023-05-10T10:15:28;13.80;99.90
13982;DHT22;7065;50.880;5.502;2023-05-10T10:17:54;13.80;99.90
13982;DHT22;7065;50.880;5.502;2023-05-10T10:20:21;13.90;99.90
13982;DHT22;7065;50.880;5.502;2023-05-10T10:22:48;14.00;99.90
13982;DHT22;7065;50.880;5.502;2023-05-10T10:25:15;14.10;99.90
13982;DHT22;7065;50.880;5.502;2023-05-10T10:30:35;13.90;99.90
13982;DHT22;7065;50.880;5.502;2023-05-10T10:35:37;13.90;99.90
13982;DHT22;7065;50.880;5.502;2023-05-10T10:38:02;13.80;99.90
13982;DHT22;7065;50.880;5.502;2023-05-10T10:40:29;13.70;99.90
13982;DHT22;7065;50.880;5.502;2023-05-10T10:42:57;13.70;99.90
13982;DHT22;7065;50.880;5.502;2023-05-10T10:45:23;13.80;99.90
13982;DHT22;7065;50.880;5.502;2023-05-10T10:48:39;13.80;99.90
13982;DHT22;7065;50.880;5.502;2023-05-10T10:50:45;13.80;99.90
13982;DHT22;7065;50.880;5.502;2023-05-10T10:53:14;13.70;99.90
13982;DHT22;7065;50.880;5.502;2023-05-10T10:55:48;13.60;99.90
13982;DHT22;7065;50.880;5.502;2023-05-10T10:58:34;13.60;99.90
13982;DHT22;7065;50.880;5.502;2023-05-10T11:01:17;13.60;99.90
13982;DHT22;7065;50.880;5.502;2023-05-10T11:06:34;13.70;99.90
13982;DHT22;7065;50.880;5.502;2023-05-10T11:09:07;13.70;99.90
13982;DHT22;7065;50.880;5.502;2023-05-10T11:11:34;13.70;99.90
13982;DHT22;7065;50.880;5.502;2023-05-10T11:14:05;13.80;99.90
13982;DHT22;7065;50.880;5.502;2023-05-10T11:16:44;13.80;99.90
13982;DHT22;7065;50.880;5.502;2023-05-10T11:19:14;13.80;99.90
13982;DHT22;7065;50.880;5.502;2023-05-10T11:24:19;13.90;99.90
13982;DHT22;7065;50.880;5.502;2023-05-10T11:26:45;13.90;99.90
13982;DHT22;7065;50.880;5.502;2023-05-10T11:29:13;14.00;99.90
13982;DHT22;7065;50.880;5.502;2023-05-10T11:31:48;14.10;99.90
13982;DHT22;7065;50.880;5.502;2023-05-10T11:36:54;14.20;99.90
13982;DHT22;7065;50.880;5.502;2023-05-10T11:39:20;14.20;99.90
13982;DHT22;7065;50.880;5.502;2023-05-10T11:41:49;14.30;99.90
13982;DHT22;7065;50.880;5.502;2023-05-10T11:44:15;14.40;99.90
13982;DHT22;7065;50.880;5.502;2023-05-10T11:46:42;14.40;99.90
13982;DHT22;7065;50.880;5.502;2023-05-10T11:49:08;14.50;99.90
13982;DHT22;7065;50.880;5.502;2023-05-10T11:51:35;14.40;99.90
13982;DHT22;7065;50.880;5.502;2023-05-10T11:54:11;14.40;99.90
13982;DHT22;7065;50.880;5.502;2023-05-10T11:56:38;14.40;99.90
13982;DHT22;7065;50.880;5.502;2023-05-10T11:59:04;14.50;99.90
13982;DHT22;7065;50.880;5.502;2023-05-10T12:01:31;14.40;99.90
13982;DHT22;7065;50.880;5.502;2023-05-10T12:03:57;14.50;99.90
13982;DHT22;7065;50.880;5.502;2023-05-10T12:06:27;14.50;99.90
13982;DHT22;7065;50.880;5.502;2023-05-10T12:08:53;14.50;99.90
13982;DHT22;7065;50.880;5.502;2023-05-10T12:11:19;14.50;99.90
13982;DHT22;7065;50.880;5.502;2023-05-10T12:13:47;14.40;99.90
13982;DHT22;7065;50.880;5.502;2023-05-10T12:16:17;14.40;99.90
13982;DHT22;7065;50.880;5.502;2023-05-10T12:18:44;14.30;99.90
13982;DHT22;7065;50.880;5.502;2023-05-10T12:21:13;14.30;99.90
13982;DHT22;7065;50.880;5.502;2023-05-10T12:23:39;14.30;99.90
13982;DHT22;7065;50.880;5.502;2023-05-10T12:26:05;14.40;99.90
13982;DHT22;7065;50.880;5.502;2023-05-10T12:28:32;14.60;99.90
13982;DHT22;7065;50.880;5.502;2023-05-10T12:30:59;14.60;99.90
13982;DHT22;7065;50.880;5.502;2023-05-10T12:33:25;14.60;99.90
13982;DHT22;7065;50.880;5.502;2023-05-10T12:35:52;14.70;99.90
13982;DHT22;7065;50.880;5.502;2023-05-10T12:38:26;14.80;99.90
13982;DHT22;7065;50.880;5.502;2023-05-10T12:41:03;14.90;99.90
13982;DHT22;7065;50.880;5.502;2023-05-10T12:43:29;14.90;99.90
13982;DHT22;7065;50.880;5.502;2023-05-10T12:45:56;15.00;99.90
13982;DHT22;7065;50.880;5.502;2023-05-10T12:48:22;15.10;99.90
13982;DHT22;7065;50.880;5.502;2023-05-10T12:50:47;15.00;99.90
13982;DHT22;7065;50.880;5.502;2023-05-10T12:53:14;15.00;99.90
13982;DHT22;7065;50.880;5.502;2023-05-10T12:55:42;15.00;99.90
13982;DHT22;7065;50.880;5.502;2023-05-10T12:58:07;15.10;99.90
13982;DHT22;7065;50.880;5.502;2023-05-10T13:00:33;15.10;99.90
13982;DHT22;7065;50.880;5.502;2023-05-10T13:02:59;15.10;99.90
13982;DHT22;7065;50.880;5.502;2023-05-10T13:05:24;15.10;99.90
13982;DHT22;7065;50.880;5.502;2023-05-10T13:07:50;15.20;99.90
13982;DHT22;7065;50.880;5.502;2023-05-10T13:10:16;15.10;99.90
13982;DHT22;7065;50.880;5.502;2023-05-10T13:12:42;15.00;99.90
13982;DHT22;7065;50.880;5.502;2023-05-10T13:15:08;15.00;99.90
13982;DHT22;7065;50.880;5.502;2023-05-10T13:17:33;14.90;99.90
13982;DHT22;7065;50.880;5.502;2023-05-10T13:19:59;15.00;99.90
13982;DHT22;7065;50.880;5.502;2023-05-10T13:22:26;15.00;99.90
13982;DHT22;7065;50.880;5.502;2023-05-10T13:24:51;15.00;99.90
13982;DHT22;7065;50.880;5.502;2023-05-10T13:27:17;15.10;99.90
13982;DHT22;7065;50.880;5.502;2023-05-10T13:29:42;15.10;99.90
13982;DHT22;7065;50.880;5.502;2023-05-10T13:32:08;15.10;99.90
13982;DHT22;7065;50.880;5.502;2023-05-10T13:34:35;15.10;99.90
13982;DHT22;7065;50.880;5.502;2023-05-10T13:37:01;15.10;99.90
13982;DHT22;7065;50.880;5.502;2023-05-10T13:39:27;15.20;99.90
13982;DHT22;7065;50.880;5.502;2023-05-10T13:41:52;15.30;99.90
13982;DHT22;7065;50.880;5.502;2023-05-10T13:44:20;15.40;99.90
13982;DHT22;7065;50.880;5.502;2023-05-10T13:46:46;15.40;99.90
13982;DHT22;7065;50.880;5.502;2023-05-10T13:49:12;15.40;99.90
13982;DHT22;7065;50.880;5.502;2023-05-10T13:51:38;15.50;99.90
13982;DHT22;7065;50.880;5.502;2023-05-10T13:54:04;15.50;99.90
13982;DHT22;7065;50.880;5.502;2023-05-10T13:56:30;15.50;99.90
13982;DHT22;7065;50.880;5.502;2023-05-10T13:58:59;15.40;99.90
13982;DHT22;7065;50.880;5.502;2023-05-10T14:01:25;15.40;99.90
13982;DHT22;7065;50.880;5.502;2023-05-10T14:03:50;15.40;99.90
13982;DHT22;7065;50.880;5.502;2023-05-10T14:06:16;15.40;99.90
13982;DHT22;7065;50.880;5.502;2023-05-10T14:08:42;15.40;99.90
13982;DHT22;7065;50.880;5.502;2023-05-10T14:11:08;15.40;99.90
13982;DHT22;7065;50.880;5.502;2023-05-10T14:13:34;15.40;99.90
13982;DHT22;7065;50.880;5.502;2023-05-10T14:15:59;15.30;99.90
13982;DHT22;7065;50.880;5.502;2023-05-10T14:18:26;15.20;99.90
13982;DHT22;7065;50.880;5.502;2023-05-10T14:20:52;15.20;99.90
13982;DHT22;7065;50.880;5.502;2023-05-10T14:23:18;15.20;99.90
13982;DHT22;7065;50.880;5.502;2023-05-10T14:25:51;15.20;99.90
13982;DHT22;7065;50.880;5.502;2023-05-10T14:28:17;15.10;99.90
13982;DHT22;7065;50.880;5.502;2023-05-10T14:30:47;15.10;99.90
13982;DHT22;7065;50.880;5.502;2023-05-10T14:33:12;15.00;99.90
13982;DHT22;7065;50.880;5.502;2023-05-10T14:35:38;14.90;99.90
13982;DHT22;7065;50.880;5.502;2023-05-10T14:38:04;14.90;99.90
13982;DHT22;7065;50.880;5.502;2023-05-10T14:40:30;15.00;99.90
13982;DHT22;7065;50.880;5.502;2023-05-10T14:42:56;15.00;99.90
13982;DHT22;7065;50.880;5.502;2023-05-10T14:45:22;15.00;99.90
13982;DHT22;7065;50.880;5.502;2023-05-10T14:47:49;15.10;99.90
13982;DHT22;7065;50.880;5.502;2023-05-10T14:50:15;15.10;99.90
13982;DHT22;7065;50.880;5.502;2023-05-10T14:52:42;15.10;99.90
13982;DHT22;7065;50.880;5.502;2023-05-10T14:55:08;15.10;99.90
13982;DHT22;7065;50.880;5.502;2023-05-10T14:57:34;15.10;99.90
13982;DHT22;7065;50.880;5.502;2023-05-10T15:00:00;15.10;99.90
13982;DHT22;7065;50.880;5.502;2023-05-10T15:02:25;15.10;99.90
13982;DHT22;7065;50.880;5.502;2023-05-10T15:04:51;15.00;99.90
13982;DHT22;7065;50.880;5.502;2023-05-10T15:07:17;15.10;99.90
13982;DHT22;7065;50.880;5.502;2023-05-10T15:09:44;15.10;99.90
13982;DHT22;7065;50.880;5.502;2023-05-10T15:12:10;15.10;99.90
13982;DHT22;7065;50.880;5.502;2023-05-10T15:14:36;15.10;99.90
13982;DHT22;7065;50.880;5.502;2023-05-10T15:17:02;15.30;99.90
13982;DHT22;7065;50.880;5.502;2023-05-10T15:19:28;15.30;99.90
13982;DHT22;7065;50.880;5.502;2023-05-10T15:21:55;15.40;99.90
13982;DHT22;7065;50.880;5.502;2023-05-10T15:24:21;15.40;99.90
13982;DHT22;7065;50.880;5.502;2023-05-10T15:26:47;15.50;99.90
13982;DHT22;7065;50.880;5.502;2023-05-10T15:29:13;15.60;99.90
13982;DHT22;7065;50.880;5.502;2023-05-10T15:31:46;15.60;99.90
13982;DHT22;7065;50.880;5.502;2023-05-10T15:34:13;15.60;99.90
13982;DHT22;7065;50.880;5.502;2023-05-10T15:36:39;15.60;99.90
13982;DHT22;7065;50.880;5.502;2023-05-10T15:39:05;15.60;99.90
13982;DHT22;7065;50.880;5.502;2023-05-10T15:41:31;15.60;99.90
13982;DHT22;7065;50.880;5.502;2023-05-10T15:43:57;15.60;99.90
13982;DHT22;7065;50.880;5.502;2023-05-10T15:46:25;15.70;99.90
13982;DHT22;7065;50.880;5.502;2023-05-10T15:48:51;15.70;99.90
13982;DHT22;7065;50.880;5.502;2023-05-10T15:51:17;15.70;99.90
13982;DHT22;7065;50.880;5.502;2023-05-10T15:53:44;15.70;99.90
13982;DHT22;7065;50.880;5.502;2023-05-10T15:56:10;15.80;99.90
13982;DHT22;7065;50.880;5.502;2023-05-10T15:58:37;15.70;99.90
13982;DHT22;7065;50.880;5.502;2023-05-10T16:01:03;15.70;99.90
13982;DHT22;7065;50.880;5.502;2023-05-10T16:03:30;15.70;99.90
13982;DHT22;7065;50.880;5.502;2023-05-10T16:05:56;15.80;99.90
13982;DHT22;7065;50.880;5.502;2023-05-10T16:08:22;15.90;99.90
13982;DHT22;7065;50.880;5.502;2023-05-10T16:10:49;16.20;99.90
13982;DHT22;7065;50.880;5.502;2023-05-10T16:13:16;16.60;99.90
13982;DHT22;7065;50.880;5.502;2023-05-10T16:15:41;16.80;99.90